Wetterdaten: Woche 24.03.08 - 30.03.08 (KW13)
Datum Zeit Temperatur Luftfeuchte Luftdruck Niederschlag Wind Richtung Sonnenschein Solar Taupunkt Windchill Windben
24.03.2008 00:00 -1.0 C 83 % 999.2 hPa 0.0 l/m 5.3 km/h (1 Bft) W-NW 0.00 h 0 W/m -3.5 C -2.6 C 8.7 km/h (2 Bft)
24.03.2008 01:00 -1.5 C 83 % 998.9 hPa 0.0 l/m 1.8 km/h (1 Bft) W 0.00 h 0 W/m -4.0 C -1.8 C 3.4 km/h (1 Bft)
24.03.2008 02:00 -2.4 C 86 % 998.6 hPa 0.0 l/m 1.3 km/h (1 Bft) NW 0.00 h 0 W/m -4.4 C -2.4 C 2.4 km/h (1 Bft)
24.03.2008 03:00 -3.4 C 89 % 998.1 hPa 0.0 l/m 0.3 km/h (0 Bft) N 0.00 h 0 W/m -4.9 C -3.4 C 0.8 km/h (0 Bft)
24.03.2008 04:00 -3.8 C 89 % 997.9 hPa 0.0 l/m 1.2 km/h (1 Bft) N 0.00 h 0 W/m -5.4 C -3.8 C 2.2 km/h (1 Bft)
24.03.2008 05:00 -4.6 C 88 % 997.6 hPa 0.0 l/m 0.6 km/h (0 Bft) W 0.00 h 0 W/m -6.3 C -4.6 C 1.7 km/h (1 Bft)
24.03.2008 06:00 -5.3 C 88 % 997.8 hPa 0.0 l/m 0.2 km/h (0 Bft) W 0.03 h 16 W/m -6.9 C -5.3 C 0.6 km/h (0 Bft)
24.03.2008 07:00 -4.5 C 86 % 997.8 hPa 0.0 l/m 0.3 km/h (0 Bft) W 0.80 h 129 W/m -6.4 C -4.5 C 0.8 km/h (0 Bft)
24.03.2008 08:00 -3.0 C 80 % 997.8 hPa 0.0 l/m 0.6 km/h (0 Bft) W 1.00 h 316 W/m -6.0 C -3.0 C 1.8 km/h (1 Bft)
24.03.2008 09:00 -1.1 C 73 % 998.1 hPa 0.0 l/m 1.3 km/h (1 Bft) N-NW 0.98 h 465 W/m -5.3 C -1.1 C 3.0 km/h (1 Bft)
24.03.2008 10:00 1.2 C 62 % 998.0 hPa 0.0 l/m 4.6 km/h (1 Bft) N-NW 1.00 h 562 W/m -5.4 C 0.4 C 7.8 km/h (2 Bft)
24.03.2008 11:00 2.3 C 50 % 998.1 hPa 0.0 l/m 12.4 km/h (3 Bft) W 0.70 h 497 W/m -7.0 C -1.0 C 19.3 km/h (3 Bft)
24.03.2008 12:00 1.6 C 59 % 998.5 hPa 0.0 l/m 11.0 km/h (2 Bft) W 0.13 h 314 W/m -5.5 C -1.6 C 16.6 km/h (3 Bft)
24.03.2008 13:00 0.6 C 78 % 998.6 hPa 0.0 l/m 7.6 km/h (2 Bft) W 0.08 h 289 W/m -2.8 C -1.7 C 11.7 km/h (2 Bft)
24.03.2008 14:00 0.4 C 88 % 998.7 hPa 0.2 l/m 4.0 km/h (1 Bft) W 0.00 h 164 W/m -1.4 C -0.5 C 6.6 km/h (2 Bft)
24.03.2008 15:00 0.4 C 93 % 998.8 hPa 0.4 l/m 2.9 km/h (1 Bft) S-SW 0.00 h 128 W/m -0.6 C 0.2 C 5.6 km/h (1 Bft)
24.03.2008 16:00 0.3 C 96 % 999.2 hPa 0.4 l/m 3.4 km/h (1 Bft) SW 0.00 h 95 W/m -0.3 C -0.4 C 5.8 km/h (2 Bft)
24.03.2008 17:00 0.7 C 91 % 999.5 hPa 0.0 l/m 4.1 km/h (1 Bft) W-SW 0.00 h 58 W/m -0.5 C -0.3 C 6.9 km/h (2 Bft)
24.03.2008 18:00 0.5 C 89 % 1000.1 hPa 0.0 l/m 5.2 km/h (1 Bft) W-SW 0.00 h 11 W/m -1.1 C -0.9 C 9.1 km/h (2 Bft)
24.03.2008 19:00 0.1 C 92 % 1000.4 hPa 0.0 l/m 3.9 km/h (1 Bft) S-SW 0.00 h 0 W/m -1.0 C -0.7 C 7.2 km/h (2 Bft)
24.03.2008 20:00 0.1 C 85 % 1000.4 hPa 0.0 l/m 8.0 km/h (2 Bft) W 0.00 h 0 W/m -2.2 C -2.4 C 13.1 km/h (3 Bft)
24.03.2008 21:00 -0.3 C 87 % 1000.2 hPa 0.0 l/m 3.5 km/h (1 Bft) W-SW 0.00 h 0 W/m -2.2 C -0.9 C 6.4 km/h (2 Bft)
24.03.2008 22:00 -0.6 C 94 % 999.5 hPa 0.6 l/m 1.4 km/h (1 Bft) S 0.00 h 0 W/m -1.5 C -0.7 C 3.7 km/h (1 Bft)
24.03.2008 23:00 -0.6 C 96 % 999.1 hPa 0.2 l/m 0.8 km/h (0 Bft) SW 0.00 h 0 W/m -1.1 C -0.6 C 2.6 km/h (1 Bft)
25.03.2008 00:00 -0.4 C 97 % 998.7 hPa 0.6 l/m 0.0 km/h (0 Bft) S-SW 0.00 h 0 W/m -0.8 C -0.4 C 0.5 km/h (0 Bft)
25.03.2008 01:00 -0.5 C 98 % 998.5 hPa 0.6 l/m 0.0 km/h (0 Bft) N 0.00 h 0 W/m -0.8 C -0.5 C 0.0 km/h (0 Bft)
25.03.2008 02:00 -0.6 C 98 % 998.6 hPa 0.6 l/m 0.0 km/h (0 Bft) N 0.00 h 0 W/m -0.8 C -0.6 C 0.0 km/h (0 Bft)
25.03.2008 03:00 -0.4 C 98 % 999.0 hPa 0.4 l/m 7.7 km/h (2 Bft) W 0.00 h 0 W/m -0.7 C -2.7 C 12.7 km/h (3 Bft)
25.03.2008 04:00 -0.4 C 92 % 1000.1 hPa 0.2 l/m 14.8 km/h (3 Bft) W 0.00 h 0 W/m -1.6 C -4.8 C 22.5 km/h (4 Bft)
25.03.2008 05:00 -0.8 C 90 % 1001.8 hPa 0.2 l/m 15.7 km/h (3 Bft) W 0.00 h 0 W/m -2.2 C -5.4 C 23.7 km/h (4 Bft)
25.03.2008 06:00 -1.0 C 84 % 1003.4 hPa 0.2 l/m 17.1 km/h (3 Bft) W 0.00 h 12 W/m -3.4 C -6.0 C 26.2 km/h (4 Bft)
25.03.2008 07:00 -0.6 C 84 % 1004.4 hPa 0.2 l/m 16.0 km/h (3 Bft) W 0.17 h 64 W/m -3.0 C -5.3 C 24.0 km/h (4 Bft)
25.03.2008 08:00 -0.3 C 84 % 1005.4 hPa 0.4 l/m 15.1 km/h (3 Bft) W 0.50 h 204 W/m -2.7 C -4.7 C 22.5 km/h (4 Bft)
25.03.2008 09:00 0.1 C 83 % 1006.2 hPa 0.4 l/m 15.2 km/h (3 Bft) W 0.63 h 284 W/m -2.5 C -4.3 C 23.3 km/h (4 Bft)
25.03.2008 10:00 0.9 C 76 % 1006.9 hPa 0.4 l/m 19.5 km/h (3 Bft) W 0.72 h 473 W/m -2.9 C -4.0 C 29.2 km/h (5 Bft)
25.03.2008 11:00 1.4 C 70 % 1007.8 hPa 0.0 l/m 18.8 km/h (3 Bft) W 0.47 h 415 W/m -3.4 C -3.2 C 28.8 km/h (4 Bft)
25.03.2008 12:00 2.4 C 60 % 1008.2 hPa 0.0 l/m 17.4 km/h (3 Bft) W 0.55 h 426 W/m -4.5 C -1.8 C 26.6 km/h (4 Bft)
25.03.2008 13:00 2.7 C 58 % 1008.2 hPa 0.0 l/m 16.2 km/h (3 Bft) W 0.22 h 372 W/m -4.7 C -1.2 C 24.4 km/h (4 Bft)
25.03.2008 14:00 2.5 C 63 % 1008.4 hPa 0.0 l/m 17.7 km/h (3 Bft) W 0.37 h 313 W/m -3.8 C -1.7 C 27.2 km/h (4 Bft)
25.03.2008 15:00 2.3 C 65 % 1008.7 hPa 0.0 l/m 16.2 km/h (3 Bft) W 0.05 h 180 W/m -3.6 C -1.7 C 24.4 km/h (4 Bft)
25.03.2008 16:00 0.6 C 82 % 1009.3 hPa 0.0 l/m 12.4 km/h (3 Bft) W 0.00 h 84 W/m -2.1 C -3.0 C 19.6 km/h (3 Bft)
25.03.2008 17:00 0.1 C 85 % 1009.7 hPa 0.0 l/m 10.6 km/h (2 Bft) W 0.00 h 33 W/m -2.1 C -3.2 C 16.5 km/h (3 Bft)
25.03.2008 18:00 0.3 C 76 % 1010.0 hPa 0.0 l/m 6.0 km/h (2 Bft) W-NW 0.02 h 13 W/m -3.4 C -1.5 C 9.3 km/h (2 Bft)
25.03.2008 19:00 0.3 C 75 % 1010.0 hPa 0.0 l/m 2.9 km/h (1 Bft) W-SW 0.00 h 0 W/m -3.7 C -0.1 C 5.3 km/h (1 Bft)
25.03.2008 20:00 0.7 C 72 % 1010.1 hPa 0.0 l/m 2.5 km/h (1 Bft) S 0.00 h 0 W/m -3.7 C 0.6 C 4.9 km/h (1 Bft)
25.03.2008 21:00 0.9 C 79 % 1009.9 hPa 0.0 l/m 2.6 km/h (1 Bft) W-SW 0.00 h 0 W/m -2.4 C 0.5 C 4.6 km/h (1 Bft)
25.03.2008 22:00 0.2 C 91 % 1009.8 hPa 0.2 l/m 0.6 km/h (0 Bft) W 0.00 h 0 W/m -1.1 C 0.2 C 1.9 km/h (1 Bft)
25.03.2008 23:00 0.4 C 96 % 1009.3 hPa 0.8 l/m 1.5 km/h (1 Bft) S 0.00 h 0 W/m -0.2 C 0.4 C 4.2 km/h (1 Bft)
26.03.2008 00:00 0.4 C 97 % 1009.1 hPa 0.8 l/m 1.0 km/h (0 Bft) SW 0.00 h 0 W/m 0.0 C 0.4 C 2.5 km/h (1 Bft)
26.03.2008 01:00 0.5 C 97 % 1008.8 hPa 0.8 l/m 2.1 km/h (1 Bft) S-SW 0.00 h 0 W/m 0.1 C 0.5 C 4.7 km/h (1 Bft)
26.03.2008 02:00 0.7 C 97 % 1008.7 hPa 0.6 l/m 3.6 km/h (1 Bft) S-SW 0.00 h 0 W/m 0.3 C 0.3 C 6.8 km/h (2 Bft)
26.03.2008 03:00 0.8 C 97 % 1008.4 hPa 0.4 l/m 3.7 km/h (1 Bft) SW 0.00 h 0 W/m 0.4 C 0.2 C 7.0 km/h (2 Bft)
26.03.2008 04:00 0.8 C 97 % 1008.6 hPa 0.4 l/m 2.4 km/h (1 Bft) SW 0.00 h 0 W/m 0.3 C 0.6 C 4.6 km/h (1 Bft)
26.03.2008 05:00 0.6 C 98 % 1008.5 hPa 0.8 l/m 1.1 km/h (1 Bft) S-SO 0.00 h 0 W/m 0.3 C 0.5 C 3.2 km/h (1 Bft)
26.03.2008 06:00 0.8 C 98 % 1008.2 hPa 0.6 l/m 1.8 km/h (1 Bft) S 0.00 h 5 W/m 0.5 C 0.7 C 4.4 km/h (1 Bft)
26.03.2008 07:00 1.0 C 98 % 1007.8 hPa 0.4 l/m 1.1 km/h (1 Bft) S 0.00 h 23 W/m 0.7 C 1.0 C 3.4 km/h (1 Bft)
26.03.2008 08:00 1.7 C 97 % 1007.4 hPa 0.2 l/m 0.5 km/h (0 Bft) W-NW 0.35 h 171 W/m 1.3 C 1.7 C 1.6 km/h (1 Bft)
26.03.2008 09:00 2.6 C 97 % 1006.9 hPa 0.0 l/m 0.5 km/h (0 Bft) W-NW 0.48 h 275 W/m 2.2 C 2.6 C 1.9 km/h (1 Bft)
26.03.2008 10:00 3.2 C 93 % 1006.3 hPa 0.0 l/m 0.8 km/h (0 Bft) NW 0.00 h 210 W/m 2.2 C 3.2 C 2.3 km/h (1 Bft)
26.03.2008 11:00 3.4 C 93 % 1005.7 hPa 0.0 l/m 0.3 km/h (0 Bft) NW 0.00 h 108 W/m 2.3 C 3.4 C 1.2 km/h (1 Bft)
26.03.2008 12:00 3.9 C 89 % 1005.3 hPa 0.0 l/m 2.4 km/h (1 Bft) S-SW 0.00 h 217 W/m 2.2 C 3.7 C 5.3 km/h (1 Bft)
26.03.2008 13:00 4.5 C 83 % 1004.6 hPa 0.0 l/m 2.4 km/h (1 Bft) S 0.20 h 259 W/m 1.8 C 4.2 C 4.8 km/h (1 Bft)
26.03.2008 14:00 5.9 C 76 % 1003.7 hPa 0.0 l/m 1.2 km/h (1 Bft) N-NW 1.00 h 395 W/m 2.1 C 5.9 C 2.7 km/h (1 Bft)
26.03.2008 15:00 6.7 C 74 % 1002.9 hPa 0.0 l/m 2.6 km/h (1 Bft) N-NW 0.90 h 308 W/m 2.4 C 6.6 C 4.9 km/h (1 Bft)
26.03.2008 16:00 7.0 C 74 % 1002.4 hPa 0.0 l/m 0.9 km/h (0 Bft) N-NW 0.55 h 208 W/m 2.7 C 7.0 C 2.3 km/h (1 Bft)
26.03.2008 17:00 6.9 C 72 % 1002.0 hPa 0.0 l/m 0.4 km/h (0 Bft) N-NW 0.03 h 93 W/m 2.2 C 6.9 C 1.3 km/h (1 Bft)
26.03.2008 18:00 5.8 C 82 % 1001.8 hPa 0.0 l/m 0.1 km/h (0 Bft) N-NW 0.00 h 24 W/m 2.9 C 5.8 C 0.8 km/h (0 Bft)
26.03.2008 19:00 4.7 C 88 % 1001.9 hPa 0.0 l/m 0.1 km/h (0 Bft) N-NW 0.00 h 0 W/m 2.9 C 4.7 C 0.9 km/h (0 Bft)
26.03.2008 20:00 3.6 C 91 % 1001.9 hPa 0.0 l/m 0.2 km/h (0 Bft) N-NW 0.00 h 0 W/m 2.2 C 3.6 C 0.6 km/h (0 Bft)
26.03.2008 21:00 3.0 C 94 % 1001.7 hPa 0.0 l/m 0.0 km/h (0 Bft) N 0.00 h 0 W/m 2.1 C 3.0 C 0.0 km/h (0 Bft)
26.03.2008 22:00 2.6 C 95 % 1001.4 hPa 0.0 l/m 0.6 km/h (0 Bft) N-NW 0.00 h 0 W/m 1.9 C 2.6 C 1.2 km/h (1 Bft)
26.03.2008 23:00 2.5 C 96 % 1001.1 hPa 0.0 l/m 0.2 km/h (0 Bft) N-NW 0.00 h 0 W/m 1.9 C 2.5 C 1.0 km/h (0 Bft)
27.03.2008 00:00 1.9 C 97 % 1001.0 hPa 0.0 l/m 0.2 km/h (0 Bft) N-NW 0.00 h 0 W/m 1.4 C 1.9 C 0.5 km/h (0 Bft)
27.03.2008 01:00 1.6 C 97 % 1000.7 hPa 0.0 l/m 0.0 km/h (0 Bft) N 0.00 h 0 W/m 1.2 C 1.6 C 0.0 km/h (0 Bft)
27.03.2008 02:00 1.5 C 98 % 1000.6 hPa 0.0 l/m 0.0 km/h (0 Bft) N 0.00 h 0 W/m 1.1 C 1.5 C 0.0 km/h (0 Bft)
27.03.2008 03:00 1.4 C 98 % 1000.2 hPa 0.0 l/m 0.7 km/h (0 Bft) N-NW 0.00 h 0 W/m 1.1 C 1.4 C 1.7 km/h (1 Bft)
27.03.2008 04:00 1.5 C 98 % 1000.3 hPa 0.0 l/m 0.1 km/h (0 Bft) N-NW 0.00 h 0 W/m 1.3 C 1.5 C 0.3 km/h (0 Bft)
27.03.2008 05:00 1.8 C 98 % 1000.7 hPa 0.8 l/m 3.4 km/h (1 Bft) O-SO 0.00 h 0 W/m 1.6 C 1.6 C 4.8 km/h (1 Bft)
27.03.2008 06:00 2.6 C 98 % 1001.2 hPa 0.2 l/m 1.6 km/h (1 Bft) SO 0.00 h 11 W/m 2.2 C 2.4 C 3.3 km/h (1 Bft)
27.03.2008 07:00 2.9 C 98 % 1001.6 hPa 0.0 l/m 0.8 km/h (0 Bft) SO 0.00 h 55 W/m 2.6 C 2.9 C 1.8 km/h (1 Bft)
27.03.2008 08:00 4.2 C 96 % 1001.5 hPa 0.0 l/m 1.3 km/h (1 Bft) SO 0.00 h 148 W/m 3.6 C 4.1 C 3.5 km/h (1 Bft)
27.03.2008 09:00 5.0 C 93 % 1001.7 hPa 0.0 l/m 3.8 km/h (1 Bft) N-NW 0.42 h 302 W/m 4.0 C 4.5 C 6.1 km/h (2 Bft)
27.03.2008 10:00 6.6 C 84 % 1001.6 hPa 0.0 l/m 5.7 km/h (1 Bft) N-NW 0.48 h 319 W/m 4.0 C 5.7 C 8.6 km/h (2 Bft)
27.03.2008 11:00 6.9 C 73 % 1001.6 hPa 0.0 l/m 8.2 km/h (2 Bft) W 0.08 h 264 W/m 2.4 C 5.4 C 12.8 km/h (3 Bft)
27.03.2008 12:00 8.0 C 66 % 1001.5 hPa 0.0 l/m 9.3 km/h (2 Bft) W-SW 0.52 h 443 W/m 2.1 C 6.5 C 14.6 km/h (3 Bft)
27.03.2008 13:00 8.8 C 58 % 1001.2 hPa 0.0 l/m 8.9 km/h (2 Bft) W 0.68 h 426 W/m 0.9 C 7.5 C 14.1 km/h (3 Bft)
27.03.2008 14:00 9.5 C 53 % 1001.3 hPa 0.0 l/m 11.8 km/h (2 Bft) W 0.70 h 543 W/m 0.5 C 8.4 C 18.0 km/h (3 Bft)
27.03.2008 15:00 9.1 C 51 % 1001.7 hPa 0.0 l/m 14.2 km/h (3 Bft) W-NW 0.33 h 311 W/m -0.4 C 7.1 C 21.7 km/h (4 Bft)
27.03.2008 16:00 8.5 C 54 % 1002.4 hPa 0.0 l/m 16.5 km/h (3 Bft) W-NW 0.87 h 310 W/m -0.2 C 5.9 C 25.3 km/h (4 Bft)
27.03.2008 17:00 7.2 C 61 % 1003.4 hPa 0.0 l/m 14.7 km/h (3 Bft) W-NW 0.45 h 119 W/m 0.1 C 4.5 C 22.4 km/h (4 Bft)
27.03.2008 18:00 6.0 C 67 % 1004.5 hPa 0.0 l/m 8.1 km/h (2 Bft) W-NW 0.27 h 32 W/m 0.3 C 4.5 C 12.8 km/h (3 Bft)
27.03.2008 19:00 5.1 C 71 % 1005.4 hPa 0.0 l/m 3.0 km/h (1 Bft) NW 0.00 h 0 W/m 0.4 C 4.8 C 4.9 km/h (1 Bft)
27.03.2008 20:00 4.4 C 73 % 1006.2 hPa 0.0 l/m 1.5 km/h (1 Bft) W 0.00 h 0 W/m -0.0 C 4.4 C 2.9 km/h (1 Bft)
27.03.2008 21:00 2.8 C 79 % 1006.9 hPa 0.0 l/m 1.7 km/h (1 Bft) O-SO 0.00 h 0 W/m -0.5 C 2.8 C 3.1 km/h (1 Bft)
27.03.2008 22:00 1.8 C 83 % 1007.7 hPa 0.0 l/m 1.4 km/h (1 Bft) O-SO 0.00 h 0 W/m -0.8 C 1.8 C 2.7 km/h (1 Bft)
27.03.2008 23:00 0.7 C 87 % 1008.5 hPa 0.0 l/m 3.0 km/h (1 Bft) O-SO 0.00 h 0 W/m -1.2 C 0.2 C 4.1 km/h (1 Bft)
28.03.2008 00:00 0.0 C 90 % 1009.3 hPa 0.0 l/m 0.1 km/h (0 Bft) O-SO 0.00 h 0 W/m -1.4 C 0.0 C 0.4 km/h (0 Bft)
28.03.2008 01:00 -0.6 C 91 % 1010.1 hPa 0.0 l/m 0.5 km/h (0 Bft) O-SO 0.00 h 0 W/m -1.8 C -0.6 C 1.3 km/h (1 Bft)
28.03.2008 02:00 -1.0 C 93 % 1010.6 hPa 0.0 l/m 0.2 km/h (0 Bft) O-SO 0.00 h 0 W/m -2.0 C -1.0 C 0.6 km/h (0 Bft)
28.03.2008 03:00 -1.3 C 95 % 1011.2 hPa 0.0 l/m 0.0 km/h (0 Bft) N 0.00 h 0 W/m -2.0 C -1.3 C 0.1 km/h (0 Bft)
28.03.2008 04:00 -1.6 C 96 % 1011.8 hPa 0.0 l/m 0.3 km/h (0 Bft) O-SO 0.00 h 0 W/m -2.2 C -1.6 C 0.7 km/h (0 Bft)
28.03.2008 05:00 -1.9 C 96 % 1012.6 hPa 0.0 l/m 0.3 km/h (0 Bft) O-SO 0.00 h 0 W/m -2.5 C -1.9 C 0.7 km/h (0 Bft)
28.03.2008 06:00 -2.0 C 97 % 1013.2 hPa 0.0 l/m 0.3 km/h (0 Bft) O-SO 0.03 h 21 W/m -2.4 C -2.0 C 0.4 km/h (0 Bft)
28.03.2008 07:00 -1.2 C 97 % 1013.9 hPa 0.2 l/m 0.0 km/h (0 Bft) N 0.63 h 134 W/m -1.6 C -1.2 C 0.0 km/h (0 Bft)
28.03.2008 08:00 0.8 C 91 % 1014.3 hPa 0.0 l/m 0.1 km/h (0 Bft) O-SO 1.00 h 316 W/m -0.5 C 0.8 C 0.6 km/h (0 Bft)
28.03.2008 09:00 3.2 C 82 % 1014.4 hPa 0.0 l/m 0.7 km/h (0 Bft) O-SO 1.00 h 472 W/m 0.4 C 3.2 C 2.0 km/h (1 Bft)
28.03.2008 10:00 6.2 C 70 % 1014.2 hPa 0.0 l/m 1.2 km/h (1 Bft) NW 1.00 h 597 W/m 1.2 C 6.2 C 2.9 km/h (1 Bft)
28.03.2008 11:00 8.7 C 57 % 1013.9 hPa 0.0 l/m 2.6 km/h (1 Bft) NW 1.00 h 685 W/m 0.7 C 8.6 C 5.2 km/h (1 Bft)
28.03.2008 12:00 10.2 C 48 % 1013.5 hPa 0.0 l/m 3.8 km/h (1 Bft) S 0.98 h 654 W/m -0.4 C 10.1 C 7.2 km/h (2 Bft)
28.03.2008 13:00 11.2 C 43 % 1012.9 hPa 0.0 l/m 4.8 km/h (1 Bft) S 1.00 h 698 W/m -1.0 C 11.2 C 8.4 km/h (2 Bft)
28.03.2008 14:00 12.4 C 40 % 1012.1 hPa 0.0 l/m 4.1 km/h (1 Bft) S-SW 1.00 h 602 W/m -0.8 C 12.4 C 7.0 km/h (2 Bft)
28.03.2008 15:00 12.8 C 36 % 1011.7 hPa 0.0 l/m 5.3 km/h (1 Bft) S-SW 1.00 h 514 W/m -1.9 C 12.8 C 8.9 km/h (2 Bft)
28.03.2008 16:00 12.8 C 37 % 1011.0 hPa 0.0 l/m 5.1 km/h (1 Bft) S-SW 0.67 h 295 W/m -1.4 C 12.8 C 8.5 km/h (2 Bft)
28.03.2008 17:00 11.5 C 43 % 1011.0 hPa 0.0 l/m 5.3 km/h (1 Bft) W-SW 0.00 h 72 W/m -0.8 C 11.5 C 8.3 km/h (2 Bft)
28.03.2008 18:00 10.6 C 43 % 1011.7 hPa 0.0 l/m 7.2 km/h (2 Bft) SW 0.02 h 15 W/m -1.3 C 10.6 C 12.1 km/h (2 Bft)
28.03.2008 19:00 10.0 C 46 % 1012.0 hPa 0.0 l/m 6.3 km/h (2 Bft) S-SW 0.00 h 0 W/m -1.1 C 9.8 C 12.1 km/h (2 Bft)
28.03.2008 20:00 9.7 C 48 % 1012.1 hPa 0.0 l/m 5.2 km/h (1 Bft) S-SW 0.00 h 0 W/m -0.8 C 9.3 C 9.7 km/h (2 Bft)
28.03.2008 21:00 9.7 C 47 % 1011.7 hPa 0.0 l/m 8.2 km/h (2 Bft) S-SW 0.00 h 0 W/m -1.1 C 8.6 C 14.0 km/h (3 Bft)
28.03.2008 22:00 8.7 C 62 % 1011.9 hPa 0.4 l/m 8.2 km/h (2 Bft) S-SW 0.00 h 0 W/m 1.7 C 7.4 C 14.5 km/h (3 Bft)
28.03.2008 23:00 8.3 C 73 % 1012.4 hPa 0.0 l/m 4.8 km/h (1 Bft) SW 0.00 h 0 W/m 3.8 C 7.6 C 8.6 km/h (2 Bft)
29.03.2008 00:00 7.1 C 81 % 1013.5 hPa 0.2 l/m 3.0 km/h (1 Bft) O-SO 0.00 h 0 W/m 4.0 C 6.8 C 5.0 km/h (1 Bft)
29.03.2008 01:00 8.8 C 73 % 1014.4 hPa 0.0 l/m 20.0 km/h (4 Bft) W 0.00 h 0 W/m 4.2 C 6.9 C 29.6 km/h (5 Bft)
29.03.2008 02:00 6.6 C 81 % 1016.8 hPa 0.2 l/m 19.1 km/h (3 Bft) W 0.00 h 0 W/m 3.6 C 3.2 C 27.9 km/h (4 Bft)
29.03.2008 03:00 6.9 C 76 % 1017.5 hPa 0.0 l/m 15.2 km/h (3 Bft) W 0.00 h 0 W/m 3.0 C 4.2 C 23.8 km/h (4 Bft)
29.03.2008 04:00 6.8 C 73 % 1018.3 hPa 0.0 l/m 13.6 km/h (3 Bft) W 0.00 h 0 W/m 2.2 C 4.3 C 20.3 km/h (4 Bft)
29.03.2008 05:00 6.2 C 84 % 1019.5 hPa 0.2 l/m 6.7 km/h (2 Bft) W 0.00 h 0 W/m 3.7 C 5.0 C 10.3 km/h (2 Bft)
29.03.2008 06:00 6.3 C 83 % 1020.5 hPa 0.0 l/m 5.9 km/h (2 Bft) W 0.17 h 29 W/m 3.6 C 5.4 C 9.2 km/h (2 Bft)
29.03.2008 07:00 6.9 C 78 % 1021.3 hPa 0.0 l/m 2.1 km/h (1 Bft) SW 0.20 h 92 W/m 3.3 C 6.8 C 4.7 km/h (1 Bft)
29.03.2008 08:00 7.7 C 71 % 1021.7 hPa 0.0 l/m 10.1 km/h (2 Bft) W 0.53 h 227 W/m 2.8 C 6.0 C 15.7 km/h (3 Bft)
29.03.2008 09:00 8.9 C 64 % 1022.1 hPa 0.0 l/m 12.2 km/h (2 Bft) W 1.00 h 514 W/m 2.4 C 7.0 C 18.9 km/h (3 Bft)
29.03.2008 10:00 9.8 C 56 % 1022.6 hPa 0.0 l/m 12.6 km/h (3 Bft) W-NW 0.72 h 532 W/m 1.3 C 8.3 C 20.1 km/h (4 Bft)
29.03.2008 11:00 10.7 C 49 % 1022.8 hPa 0.0 l/m 11.4 km/h (2 Bft) W-NW 0.88 h 652 W/m 0.3 C 10.4 C 17.6 km/h (3 Bft)
29.03.2008 12:00 11.9 C 45 % 1022.3 hPa 0.0 l/m 9.9 km/h (2 Bft) W-NW 0.87 h 672 W/m 0.4 C 11.9 C 15.8 km/h (3 Bft)
29.03.2008 13:00 13.0 C 42 % 1021.6 hPa 0.0 l/m 8.7 km/h (2 Bft) W-NW 1.00 h 704 W/m 0.3 C 13.0 C 14.1 km/h (3 Bft)
29.03.2008 14:00 13.4 C 41 % 1020.8 hPa 0.0 l/m 4.8 km/h (1 Bft) O-SO 0.82 h 564 W/m 0.4 C 13.4 C 8.2 km/h (2 Bft)
29.03.2008 15:00 14.8 C 38 % 1020.0 hPa 0.0 l/m 2.4 km/h (1 Bft) W-NW 1.00 h 500 W/m 0.6 C 14.8 C 4.9 km/h (1 Bft)
29.03.2008 16:00 14.9 C 35 % 1019.1 hPa 0.0 l/m 2.9 km/h (1 Bft) N-NW 0.98 h 336 W/m -0.5 C 14.9 C 5.6 km/h (1 Bft)
29.03.2008 17:00 14.0 C 35 % 1018.6 hPa 0.0 l/m 2.2 km/h (1 Bft) W 0.20 h 98 W/m -1.1 C 14.0 C 4.6 km/h (1 Bft)
29.03.2008 18:00 11.8 C 49 % 1018.6 hPa 0.0 l/m 3.3 km/h (1 Bft) SO 0.32 h 36 W/m 1.4 C 11.8 C 4.8 km/h (1 Bft)
29.03.2008 19:00 9.4 C 59 % 1018.5 hPa 0.0 l/m 0.3 km/h (0 Bft) SO 0.00 h 0 W/m 1.8 C 9.4 C 1.2 km/h (1 Bft)
29.03.2008 20:00 7.6 C 67 % 1018.8 hPa 0.0 l/m 0.1 km/h (0 Bft) SO 0.00 h 0 W/m 1.9 C 7.6 C 0.3 km/h (0 Bft)
29.03.2008 21:00 5.5 C 77 % 1019.1 hPa 0.0 l/m 0.9 km/h (0 Bft) SO 0.00 h 0 W/m 1.8 C 5.5 C 1.8 km/h (1 Bft)
29.03.2008 22:00 4.3 C 81 % 1018.8 hPa 0.0 l/m 0.6 km/h (0 Bft) SO 0.00 h 0 W/m 1.3 C 4.3 C 1.1 km/h (1 Bft)
29.03.2008 23:00 3.4 C 82 % 1018.9 hPa 0.0 l/m 0.8 km/h (0 Bft) SO 0.00 h 0 W/m 0.6 C 3.4 C 1.3 km/h (1 Bft)
30.03.2008 00:00 2.8 C 84 % 1018.3 hPa 0.0 l/m 0.3 km/h (0 Bft) SO 0.00 h 0 W/m 0.4 C 2.8 C 0.6 km/h (0 Bft)
30.03.2008 01:00 1.9 C 88 % 1017.8 hPa 0.0 l/m 1.3 km/h (1 Bft) SO 0.00 h 0 W/m 0.1 C 1.9 C 2.7 km/h (1 Bft)
30.03.2008 03:00 1.3 C 89 % 1017.1 hPa 0.0 l/m 0.9 km/h (0 Bft) SO 0.00 h 0 W/m -0.3 C 1.3 C 1.7 km/h (1 Bft)
30.03.2008 04:00 1.1 C 90 % 1016.5 hPa 0.0 l/m 0.1 km/h (0 Bft) SO 0.00 h 0 W/m -0.3 C 1.1 C 0.2 km/h (0 Bft)
30.03.2008 05:00 0.5 C 92 % 1016.2 hPa 0.0 l/m 1.7 km/h (1 Bft) SO 0.00 h 0 W/m -0.6 C 0.4 C 2.7 km/h (1 Bft)
30.03.2008 06:00 0.4 C 93 % 1015.6 hPa 0.0 l/m 0.5 km/h (0 Bft) SO 0.00 h 0 W/m -0.5 C 0.4 C 0.8 km/h (0 Bft)
30.03.2008 07:00 0.6 C 93 % 1015.5 hPa 0.0 l/m 0.3 km/h (0 Bft) SO 0.27 h 25 W/m -0.3 C 0.6 C 0.9 km/h (0 Bft)
30.03.2008 08:00 1.5 C 92 % 1015.3 hPa 0.0 l/m 0.2 km/h (0 Bft) SO 0.57 h 131 W/m 0.3 C 1.5 C 0.8 km/h (0 Bft)
30.03.2008 09:00 4.0 C 82 % 1014.6 hPa 0.0 l/m 1.4 km/h (1 Bft) O-SO 0.95 h 329 W/m 1.3 C 4.0 C 3.1 km/h (1 Bft)
30.03.2008 10:00 7.1 C 70 % 1013.9 hPa 0.0 l/m 2.0 km/h (1 Bft) O-SO 1.00 h 462 W/m 2.0 C 7.1 C 3.9 km/h (1 Bft)
30.03.2008 11:00 11.1 C 54 % 1012.8 hPa 0.0 l/m 2.6 km/h (1 Bft) N-NW 1.00 h 620 W/m 2.2 C 11.1 C 4.7 km/h (1 Bft)
30.03.2008 12:00 14.5 C 44 % 1011.5 hPa 0.0 l/m 2.7 km/h (1 Bft) O 1.00 h 690 W/m 2.4 C 14.5 C 5.4 km/h (1 Bft)
30.03.2008 13:00 15.6 C 42 % 1011.2 hPa 0.0 l/m 4.4 km/h (1 Bft) W-NW 1.00 h 505 W/m 2.6 C 15.6 C 6.9 km/h (2 Bft)
30.03.2008 14:00 16.8 C 39 % 1010.8 hPa 0.0 l/m 3.0 km/h (1 Bft) W-NW 1.00 h 556 W/m 2.7 C 16.8 C 5.4 km/h (1 Bft)
30.03.2008 15:00 18.3 C 34 % 1010.0 hPa 0.0 l/m 3.4 km/h (1 Bft) S-SO 0.93 h 593 W/m 2.2 C 18.3 C 6.6 km/h (2 Bft)
30.03.2008 16:00 18.4 C 34 % 1009.4 hPa 0.0 l/m 4.1 km/h (1 Bft) S-SO 0.77 h 370 W/m 2.1 C 18.4 C 7.6 km/h (2 Bft)
30.03.2008 17:00 18.5 C 30 % 1008.9 hPa 0.0 l/m 2.8 km/h (1 Bft) S-SO 0.45 h 218 W/m 0.5 C 18.5 C 5.5 km/h (1 Bft)
30.03.2008 18:00 16.4 C 33 % 1008.6 hPa 0.0 l/m 3.9 km/h (1 Bft) O-SO 0.00 h 92 W/m 0.2 C 16.4 C 6.8 km/h (2 Bft)
30.03.2008 19:00 14.8 C 38 % 1008.9 hPa 0.0 l/m 1.7 km/h (1 Bft) O-SO 0.00 h 27 W/m 0.4 C 14.8 C 2.9 km/h (1 Bft)
30.03.2008 20:00 12.0 C 52 % 1009.5 hPa 0.0 l/m 2.1 km/h (1 Bft) O-SO 0.00 h 0 W/m 2.4 C 12.0 C 3.1 km/h (1 Bft)
30.03.2008 21:00 10.5 C 62 % 1010.2 hPa 0.0 l/m 2.8 km/h (1 Bft) O-SO 0.00 h 0 W/m 3.6 C 10.5 C 4.1 km/h (1 Bft)
30.03.2008 22:00 8.9 C 70 % 1010.2 hPa 0.0 l/m 3.8 km/h (1 Bft) SO 0.00 h 0 W/m 3.8 C 8.6 C 5.3 km/h (1 Bft)
30.03.2008 23:00 7.9 C 76 % 1010.6 hPa 0.0 l/m 0.6 km/h (0 Bft) O-SO 0.00 h 0 W/m 3.9 C 7.9 C 1.3 km/h (1 Bft)
Min-Datum _ 24.03.08 30.03.08 24.03.08 - 24.03.08 - - - 24.03.08 25.03.08 24.03.08
_ Min-Zeit 06:36 17:07 05:00 - 00:55 - - - 11:08 06:28 01:30
Minimum _ -5.4 C 28 % 997.6 hPa - 0.0 km/h (0 Bft) - - - -8.1 C -7.7 C 0.0 km/h (0 Bft)
Max-Datum _ 30.03.08 27.03.08 29.03.08 25.03.08 29.03.08 - 24.03.08 25.03.08 29.03.08 30.03.08 29.03.08
_ Max-Zeit 17:03 08:25 11:00 23:25 01:51 - 06:32 10:48 01:45 17:02 01:51
Maximum _ 19.6 C 100 % 1022.9 hPa 0.8 l/m 40.0 km/h
W (6 Bft)
- 0.02 h 949 W/m 4.9 C 19.6 C 59.1 km/h
W (7 Bft)
Durchschnitt _ 4.4 C 76 % 1008.1 hPa #14.2 l/m 4.6 km/h (1 Bft) W #43:41 h 287 W/m -0.1 C 3.6 C 7.6 km/h (2 Bft)
© Kaiko 2008